createdAt,value
2023-12-28T00:01:04.265Z,6.37
2023-12-28T00:03:36.773Z,6.45
2023-12-28T00:06:09.563Z,6.50
2023-12-28T00:08:39.440Z,6.45
2023-12-28T00:11:09.132Z,6.42
2023-12-28T00:13:39.108Z,6.37
2023-12-28T00:16:09.979Z,6.30
2023-12-28T00:18:42.512Z,6.21
2023-12-28T00:21:12.479Z,6.18
2023-12-28T00:23:42.781Z,6.13
2023-12-28T00:26:13.326Z,6.19
2023-12-28T00:28:43.115Z,6.17
2023-12-28T00:31:13.746Z,6.15
2023-12-28T00:33:46.322Z,6.07
2023-12-28T00:36:16.137Z,6.00
2023-12-28T00:38:45.915Z,5.93
2023-12-28T00:41:15.604Z,5.86
2023-12-28T00:43:45.346Z,5.80
2023-12-28T00:46:15.047Z,5.77
2023-12-28T00:48:47.529Z,5.80
2023-12-28T00:51:17.883Z,5.77
2023-12-28T00:53:47.637Z,5.73
2023-12-28T00:56:17.544Z,5.67
2023-12-28T00:58:47.395Z,5.65
2023-12-28T01:01:17.251Z,5.67
2023-12-28T01:03:49.758Z,5.70
2023-12-28T01:06:19.730Z,5.74
2023-12-28T01:08:49.457Z,5.75
2023-12-28T01:11:19.213Z,5.76
2023-12-28T01:13:49.049Z,5.74
2023-12-28T01:16:18.887Z,5.74
2023-12-28T01:18:51.324Z,5.71
2023-12-28T01:21:24.302Z,5.73
2023-12-28T01:23:55.175Z,5.79
2023-12-28T01:26:24.914Z,5.80
2023-12-28T01:28:54.617Z,5.88
2023-12-28T01:31:24.403Z,5.91
2023-12-28T01:33:56.860Z,5.95
2023-12-28T01:36:27.270Z,6.00
2023-12-28T01:38:57.155Z,6.01
2023-12-28T01:41:26.904Z,6.06
2023-12-28T01:43:56.662Z,6.06
2023-12-28T01:46:27.340Z,6.12
2023-12-28T01:49:00.835Z,6.14
2023-12-28T01:51:30.707Z,6.15
2023-12-28T01:54:01.677Z,6.19
2023-12-28T01:56:31.428Z,6.17
2023-12-28T01:59:01.215Z,6.21
2023-12-28T02:01:31.074Z,6.27
2023-12-28T02:04:03.913Z,6.30
2023-12-28T02:06:33.745Z,6.36
2023-12-28T02:09:03.464Z,6.45
2023-12-28T02:11:33.190Z,6.45
2023-12-28T02:14:03.529Z,6.44
2023-12-28T02:16:36.706Z,6.44
2023-12-28T02:19:17.363Z,6.50
2023-12-28T02:21:47.149Z,6.48
2023-12-28T02:24:17.004Z,6.51
2023-12-28T02:26:49.325Z,6.58
2023-12-28T02:29:19.040Z,6.56
2023-12-28T02:31:52.414Z,6.59
2023-12-28T02:34:33.791Z,6.58
2023-12-28T02:37:04.955Z,6.59
2023-12-28T02:39:34.898Z,6.58
2023-12-28T02:42:08.002Z,6.60
2023-12-28T02:44:37.720Z,6.57
2023-12-28T02:47:07.788Z,6.60
2023-12-28T02:49:37.574Z,6.62
2023-12-28T02:52:08.196Z,6.60
2023-12-28T02:54:37.974Z,6.52
2023-12-28T02:57:10.443Z,6.51
2023-12-28T02:59:40.252Z,6.46
2023-12-28T03:02:09.974Z,6.48
2023-12-28T03:04:39.713Z,6.52
2023-12-28T03:07:10.004Z,6.52
2023-12-28T03:09:40.875Z,6.46
2023-12-28T03:12:13.523Z,6.44
2023-12-28T03:14:43.259Z,6.48
2023-12-28T03:17:13.132Z,6.43
2023-12-28T03:19:42.962Z,6.50
2023-12-28T03:22:12.773Z,6.56
2023-12-28T03:24:42.510Z,6.51
2023-12-28T03:27:14.965Z,6.47
2023-12-28T03:29:45.222Z,6.48
2023-12-28T03:32:15.043Z,6.47
2023-12-28T03:34:44.858Z,6.43
2023-12-28T03:37:14.890Z,6.46
2023-12-28T03:39:45.369Z,6.44
2023-12-28T03:42:17.809Z,6.53
2023-12-28T03:44:47.668Z,6.51
2023-12-28T03:47:17.398Z,6.51
2023-12-28T03:49:47.202Z,6.48
2023-12-28T03:52:17.008Z,6.44
2023-12-28T03:54:46.751Z,6.46
2023-12-28T03:57:19.067Z,6.53
2023-12-28T03:59:49.025Z,6.46
2023-12-28T04:02:18.748Z,6.44
2023-12-28T04:04:48.530Z,6.46
2023-12-28T04:07:18.252Z,6.44
2023-12-28T04:09:46.764Z,6.41
2023-12-28T04:12:19.234Z,6.42
2023-12-28T04:14:48.962Z,6.41
2023-12-28T04:17:18.702Z,6.34
2023-12-28T04:19:48.543Z,6.39
2023-12-28T04:22:18.307Z,6.39
2023-12-28T04:24:48.044Z,6.44
2023-12-28T04:27:20.664Z,6.50
2023-12-28T04:29:50.434Z,6.46
2023-12-28T04:32:20.181Z,6.46
2023-12-28T04:34:49.956Z,6.50
2023-12-28T04:37:19.668Z,6.53
2023-12-28T04:39:49.686Z,6.48
2023-12-28T04:42:22.017Z,6.49
2023-12-28T04:44:51.790Z,6.50
2023-12-28T04:47:21.726Z,6.46
2023-12-28T04:49:51.530Z,6.44
2023-12-28T04:52:21.349Z,6.39
2023-12-28T04:54:51.129Z,6.35
2023-12-28T04:57:25.712Z,6.35
2023-12-28T04:59:56.142Z,6.34
2023-12-28T05:02:25.963Z,6.28
2023-12-28T05:04:55.829Z,6.30
2023-12-28T05:07:25.710Z,6.32
2023-12-28T05:09:55.766Z,6.34
2023-12-28T05:12:28.660Z,6.37
2023-12-28T05:15:00.642Z,6.37
2023-12-28T05:17:30.546Z,6.30
2023-12-28T05:20:00.372Z,6.35
2023-12-28T05:22:30.150Z,6.31
2023-12-28T05:25:00.037Z,6.28
2023-12-28T05:27:32.450Z,6.25
2023-12-28T05:30:02.200Z,6.29
2023-12-28T05:32:32.016Z,6.25
2023-12-28T05:35:01.778Z,6.29
2023-12-28T05:37:31.560Z,6.33
2023-12-28T05:40:01.717Z,6.35
2023-12-28T05:42:34.080Z,6.41
2023-12-28T05:45:03.820Z,6.36
2023-12-28T05:47:34.347Z,6.37
2023-12-28T05:50:04.842Z,6.39
2023-12-28T05:52:34.697Z,6.45
2023-12-28T05:55:05.546Z,6.44
2023-12-28T05:57:37.947Z,6.40
2023-12-28T06:00:11.080Z,6.40
2023-12-28T06:02:40.801Z,6.42
2023-12-28T06:05:11.000Z,6.49
2023-12-28T06:07:42.405Z,6.56
2023-12-28T06:10:13.069Z,6.61
2023-12-28T06:12:45.467Z,6.71
2023-12-28T06:15:15.542Z,6.75
2023-12-28T06:17:45.434Z,6.79
2023-12-28T06:20:15.585Z,6.87
2023-12-28T06:22:49.491Z,6.93
2023-12-28T06:25:19.266Z,6.92
2023-12-28T06:27:51.846Z,6.98
2023-12-28T06:30:22.028Z,7.06
2023-12-28T06:32:51.995Z,7.15
2023-12-28T06:35:21.759Z,7.12
2023-12-28T06:37:51.451Z,7.16
2023-12-28T06:40:21.198Z,7.21
2023-12-28T06:42:53.667Z,7.24
2023-12-28T06:45:28.405Z,7.30
2023-12-28T06:47:58.562Z,7.36
2023-12-28T06:50:28.477Z,7.35
2023-12-28T06:52:58.630Z,7.38
2023-12-28T06:55:28.398Z,7.40
2023-12-28T06:58:00.974Z,7.47
2023-12-28T07:00:31.017Z,7.50
2023-12-28T07:03:00.818Z,7.46
2023-12-28T07:05:30.668Z,7.43
2023-12-28T07:08:00.704Z,7.45
2023-12-28T07:10:30.575Z,7.49
2023-12-28T07:13:03.033Z,7.50
2023-12-28T07:15:32.788Z,7.46
2023-12-28T07:18:02.785Z,7.52
2023-12-28T07:20:32.747Z,7.55
2023-12-28T07:23:02.472Z,7.58
2023-12-28T07:25:32.137Z,7.60
2023-12-28T07:28:04.655Z,7.57
2023-12-28T07:30:34.478Z,7.64
2023-12-28T07:33:04.269Z,7.62
2023-12-28T07:35:34.140Z,7.63
2023-12-28T07:38:03.854Z,7.67
2023-12-28T07:40:33.660Z,7.56
2023-12-28T07:43:06.089Z,7.61
2023-12-28T07:45:36.419Z,7.65
2023-12-28T07:48:06.952Z,7.63
2023-12-28T07:50:36.875Z,7.57
2023-12-28T07:53:06.958Z,7.62
2023-12-28T07:55:36.680Z,7.70
2023-12-28T07:58:09.164Z,7.68
2023-12-28T08:00:39.909Z,7.68
2023-12-28T08:03:09.717Z,7.73
2023-12-28T08:05:39.579Z,7.76
2023-12-28T08:08:09.940Z,7.78
2023-12-28T08:10:39.621Z,7.88
2023-12-28T08:13:11.898Z,7.89
2023-12-28T08:15:41.662Z,7.97
2023-12-28T08:18:11.441Z,8.00
2023-12-28T08:20:41.220Z,8.02
2023-12-28T08:23:17.607Z,8.05
2023-12-28T08:25:48.389Z,8.05
2023-12-28T08:28:20.941Z,8.18
2023-12-28T08:30:50.917Z,8.19
2023-12-28T08:33:20.855Z,8.16
2023-12-28T08:35:50.652Z,8.28
2023-12-28T08:38:20.375Z,8.28
2023-12-28T08:40:50.200Z,8.27
2023-12-28T08:43:22.558Z,8.31
2023-12-28T08:45:52.326Z,8.29
2023-12-28T08:48:22.267Z,8.31
2023-12-28T08:50:53.037Z,8.39
2023-12-28T08:53:22.779Z,8.47
2023-12-28T08:55:52.495Z,8.42
2023-12-28T08:58:24.854Z,8.44
2023-12-28T09:00:54.718Z,8.44
2023-12-28T09:03:25.273Z,8.44
2023-12-28T09:05:55.188Z,8.45
2023-12-28T09:08:24.938Z,8.50
2023-12-28T09:10:54.648Z,8.60
2023-12-28T09:13:26.983Z,8.53
2023-12-28T09:15:56.738Z,8.58
2023-12-28T09:18:26.672Z,8.62
2023-12-28T09:20:56.531Z,8.63
2023-12-28T09:23:26.258Z,8.66
2023-12-28T09:25:55.967Z,8.62
2023-12-28T09:28:28.331Z,8.73
2023-12-28T09:30:58.104Z,8.72
2023-12-28T09:33:28.168Z,8.75
2023-12-28T09:35:57.912Z,8.73
2023-12-28T09:38:28.383Z,8.75
2023-12-28T09:40:58.788Z,8.80
2023-12-28T09:43:38.568Z,8.74
2023-12-28T09:46:12.779Z,8.83
2023-12-28T09:48:43.044Z,8.86
2023-12-28T09:51:16.422Z,8.89
2023-12-28T09:53:47.295Z,8.89
2023-12-28T09:56:18.034Z,8.90
2023-12-28T09:58:52.334Z,8.94
2023-12-28T10:01:22.508Z,8.96
2023-12-28T10:03:52.511Z,8.95
2023-12-28T10:06:22.884Z,8.96
2023-12-28T10:08:53.798Z,8.96
2023-12-28T10:11:23.556Z,8.98
2023-12-28T10:13:58.403Z,9.01
2023-12-28T10:16:28.115Z,9.01
2023-12-28T10:19:00.211Z,9.08
2023-12-28T10:21:30.033Z,9.05
2023-12-28T10:23:59.846Z,9.08
2023-12-28T10:26:29.793Z,9.10
2023-12-28T10:29:04.671Z,9.11
2023-12-28T10:31:34.547Z,9.11
2023-12-28T10:34:05.766Z,9.08
2023-12-28T10:36:37.665Z,9.10
2023-12-28T10:39:09.907Z,9.07
2023-12-28T10:41:40.622Z,9.12
2023-12-28T10:44:13.630Z,9.09
2023-12-28T10:46:45.187Z,9.14
2023-12-28T10:49:16.870Z,9.16
2023-12-28T10:51:47.848Z,9.21
2023-12-28T10:54:26.001Z,9.25
2023-12-28T10:57:01.252Z,9.28
2023-12-28T10:59:39.816Z,9.31
2023-12-28T11:02:10.541Z,9.36
2023-12-28T11:04:45.270Z,9.37
2023-12-28T11:07:17.343Z,9.35
2023-12-28T11:09:47.671Z,9.36
2023-12-28T11:12:19.729Z,9.39
2023-12-28T11:14:54.033Z,9.40
2023-12-28T11:17:26.232Z,9.42
2023-12-28T11:19:56.527Z,9.43
2023-12-28T11:22:26.817Z,9.39
2023-12-28T11:24:57.153Z,9.40
2023-12-28T11:27:27.708Z,9.41
2023-12-28T11:30:00.585Z,9.38
2023-12-28T11:32:30.336Z,9.37
2023-12-28T11:35:03.321Z,9.36
2023-12-28T11:37:33.889Z,9.36
2023-12-28T11:40:15.159Z,9.35
2023-12-28T11:42:52.764Z,9.42
2023-12-28T11:45:26.825Z,9.40
2023-12-28T11:48:04.133Z,9.41
2023-12-28T11:50:35.297Z,9.39
2023-12-28T11:53:05.314Z,9.41
2023-12-28T11:55:35.204Z,9.47
2023-12-28T11:58:04.940Z,9.44
2023-12-28T12:00:37.867Z,9.47
2023-12-28T12:03:08.428Z,9.52
2023-12-28T12:05:38.637Z,9.51
2023-12-28T12:08:09.852Z,9.54
2023-12-28T12:10:39.659Z,9.52
2023-12-28T12:13:09.473Z,9.53
2023-12-28T12:15:41.876Z,9.51
2023-12-28T12:18:11.766Z,9.57
2023-12-28T12:20:41.835Z,9.57
2023-12-28T12:23:12.462Z,9.56
2023-12-28T12:25:42.141Z,9.53
2023-12-28T12:28:12.362Z,9.48
2023-12-28T12:30:44.754Z,9.44
2023-12-28T12:33:14.655Z,9.47
2023-12-28T12:35:44.470Z,9.48
2023-12-28T12:38:14.403Z,9.48
2023-12-28T12:40:44.156Z,9.48
2023-12-28T12:43:14.190Z,9.53
2023-12-28T12:45:48.676Z,9.54
2023-12-28T12:48:19.044Z,9.59
2023-12-28T12:50:49.084Z,9.57
2023-12-28T12:53:18.853Z,9.59
2023-12-28T12:55:48.831Z,9.56
2023-12-28T12:58:19.270Z,9.51
2023-12-28T13:00:52.031Z,9.52
2023-12-28T13:03:23.789Z,9.53
2023-12-28T13:05:53.589Z,9.50
2023-12-28T13:08:23.322Z,9.51
2023-12-28T13:10:53.685Z,9.52
2023-12-28T13:13:23.438Z,9.53
2023-12-28T13:15:55.764Z,9.50
2023-12-28T13:18:25.588Z,9.54
2023-12-28T13:20:55.415Z,9.51
2023-12-28T13:23:25.341Z,9.51
2023-12-28T13:25:55.277Z,9.50
2023-12-28T13:28:24.969Z,9.52
2023-12-28T13:30:58.415Z,9.45
2023-12-28T13:33:28.342Z,9.51
2023-12-28T13:35:59.255Z,9.53
2023-12-28T13:38:28.943Z,9.51
2023-12-28T13:40:58.604Z,9.51
2023-12-28T13:43:28.284Z,9.52
2023-12-28T13:46:00.578Z,9.51
2023-12-28T13:48:30.499Z,9.49
2023-12-28T13:51:00.298Z,9.50
2023-12-28T13:53:29.965Z,9.46
2023-12-28T13:55:59.643Z,9.43
2023-12-28T13:58:29.318Z,9.39
2023-12-28T14:01:01.662Z,9.35
2023-12-28T14:03:31.555Z,9.35
2023-12-28T14:06:01.531Z,9.32
2023-12-28T14:08:31.282Z,9.32
2023-12-28T14:11:00.986Z,9.29
2023-12-28T14:13:32.284Z,9.20
2023-12-28T14:16:04.682Z,9.01
2023-12-28T14:18:34.506Z,8.86
2023-12-28T14:21:04.934Z,8.88
2023-12-28T14:23:35.301Z,8.86
2023-12-28T14:26:06.722Z,8.87
2023-12-28T14:28:38.056Z,8.89
2023-12-28T14:31:11.915Z,8.94
2023-12-28T14:33:43.088Z,8.94
2023-12-28T14:36:20.281Z,9.00
2023-12-28T14:38:50.207Z,9.04
2023-12-28T14:41:19.912Z,9.05
2023-12-28T14:43:49.797Z,9.07
2023-12-28T14:46:22.163Z,9.09
2023-12-28T14:48:51.855Z,9.14
2023-12-28T14:51:21.563Z,9.11
2023-12-28T14:53:51.780Z,9.16
2023-12-28T14:56:21.941Z,9.19
2023-12-28T14:58:51.626Z,9.18
2023-12-28T15:01:24.257Z,9.20
2023-12-28T15:03:53.970Z,9.21
2023-12-28T15:06:23.598Z,9.18
2023-12-28T15:08:53.136Z,9.19
2023-12-28T15:11:33.761Z,9.15
2023-12-28T15:14:11.961Z,9.15
2023-12-28T15:16:44.809Z,9.15
2023-12-28T15:19:17.399Z,9.15
2023-12-28T15:21:47.730Z,9.16
2023-12-28T15:24:18.285Z,9.14
2023-12-28T15:26:47.947Z,9.15
2023-12-28T15:29:17.567Z,9.20
2023-12-28T15:31:49.723Z,9.21
2023-12-28T15:34:19.395Z,9.19
2023-12-28T15:36:48.989Z,9.18
2023-12-28T15:39:18.863Z,9.16
2023-12-28T15:41:48.755Z,9.15
2023-12-28T15:44:18.339Z,9.14
2023-12-28T15:46:50.453Z,9.14
2023-12-28T15:49:20.958Z,9.14
2023-12-28T15:51:50.639Z,9.14
2023-12-28T15:54:20.250Z,9.09
2023-12-28T15:56:49.831Z,9.09
2023-12-28T15:59:19.505Z,9.08
2023-12-28T16:01:51.659Z,9.09
2023-12-28T16:04:21.253Z,9.09
2023-12-28T16:06:50.934Z,9.06
2023-12-28T16:09:20.538Z,9.05
2023-12-28T16:11:50.123Z,9.03
2023-12-28T16:14:21.795Z,9.02
2023-12-28T16:16:54.827Z,8.99
2023-12-28T16:19:25.068Z,8.98
2023-12-28T16:21:55.318Z,8.93
2023-12-28T16:24:24.922Z,8.93
2023-12-28T16:26:54.432Z,8.96
2023-12-28T16:29:23.973Z,8.94
2023-12-28T16:31:58.055Z,8.95
2023-12-28T16:34:27.687Z,8.96
2023-12-28T16:36:57.378Z,8.93
2023-12-28T16:39:27.100Z,8.90
2023-12-28T16:41:56.666Z,8.88
2023-12-28T16:44:26.262Z,8.86
2023-12-28T16:46:59.416Z,8.87
2023-12-28T16:49:28.987Z,8.85
2023-12-28T16:51:58.621Z,8.87
2023-12-28T16:54:28.183Z,8.85
2023-12-28T16:56:57.788Z,8.84
2023-12-28T16:59:27.398Z,8.86
2023-12-28T17:01:59.571Z,8.83
2023-12-28T17:04:29.281Z,8.83
2023-12-28T17:06:59.248Z,8.85
2023-12-28T17:09:29.121Z,8.84
2023-12-28T17:12:06.268Z,8.84
2023-12-28T17:14:36.375Z,8.72
2023-12-28T17:17:09.629Z,8.54
2023-12-28T17:19:39.943Z,8.38
2023-12-28T17:22:12.168Z,8.32
2023-12-28T17:24:47.231Z,8.30
2023-12-28T17:27:18.281Z,8.31
2023-12-28T17:29:49.013Z,8.41
2023-12-28T17:32:21.329Z,8.46
2023-12-28T17:34:51.555Z,8.45
2023-12-28T17:37:21.764Z,8.21
2023-12-28T17:39:52.045Z,8.04
2023-12-28T17:42:25.981Z,8.08
2023-12-28T17:44:59.330Z,7.97
2023-12-28T17:47:38.430Z,7.92
2023-12-28T17:50:09.425Z,7.93
2023-12-28T17:52:39.837Z,7.98
2023-12-28T17:55:09.913Z,8.00
2023-12-28T17:57:39.575Z,8.08
2023-12-28T18:00:12.965Z,8.14
2023-12-28T18:02:45.096Z,8.20
2023-12-28T18:05:14.791Z,8.32
2023-12-28T18:07:44.568Z,8.35
2023-12-28T18:10:14.200Z,8.38
2023-12-28T18:12:43.869Z,8.40
2023-12-28T18:15:14.574Z,8.42
2023-12-28T18:17:54.412Z,8.47
2023-12-28T18:20:24.006Z,8.47
2023-12-28T18:22:53.605Z,8.51
2023-12-28T18:25:23.166Z,8.56
2023-12-28T18:27:52.781Z,8.56
2023-12-28T18:30:22.431Z,8.63
2023-12-28T18:32:54.710Z,8.60
2023-12-28T18:35:24.283Z,8.62
2023-12-28T18:37:53.808Z,8.63
2023-12-28T18:40:23.650Z,8.65
2023-12-28T18:42:53.247Z,8.68
2023-12-28T18:45:22.959Z,8.68
2023-12-28T18:47:55.247Z,8.76
2023-12-28T18:50:25.082Z,8.72
2023-12-28T18:52:54.663Z,8.71
2023-12-28T18:55:24.215Z,8.72
2023-12-28T18:57:53.783Z,8.73
2023-12-28T19:00:24.193Z,8.72
2023-12-28T19:02:56.415Z,8.75
2023-12-28T19:05:26.113Z,8.70
2023-12-28T19:07:55.720Z,8.70
2023-12-28T19:10:25.311Z,8.72
2023-12-28T19:12:54.956Z,8.71
2023-12-28T19:15:24.627Z,8.68
2023-12-28T19:17:57.053Z,8.67
2023-12-28T19:20:26.694Z,8.67
2023-12-28T19:22:56.252Z,8.69
2023-12-28T19:25:25.817Z,8.66
2023-12-28T19:27:55.441Z,8.69
2023-12-28T19:30:25.189Z,8.64
2023-12-28T19:32:57.500Z,8.68
2023-12-28T19:35:27.255Z,8.73
2023-12-28T19:37:56.975Z,8.69
2023-12-28T19:40:26.691Z,8.66
2023-12-28T19:42:56.257Z,8.68
2023-12-28T19:45:25.851Z,8.68
2023-12-28T19:47:58.224Z,8.72
2023-12-28T19:50:28.137Z,8.68
2023-12-28T19:52:57.729Z,8.69
2023-12-28T19:55:27.295Z,8.67
2023-12-28T19:57:57.079Z,8.64
2023-12-28T20:00:26.751Z,8.62
2023-12-28T20:02:58.924Z,8.61
2023-12-28T20:05:28.454Z,8.65
2023-12-28T20:07:58.251Z,8.66
2023-12-28T20:10:27.947Z,8.66
2023-12-28T20:12:57.645Z,8.66
2023-12-28T20:15:27.635Z,8.66
2023-12-28T20:18:01.376Z,8.70
2023-12-28T20:20:31.415Z,8.69
2023-12-28T20:23:01.043Z,8.72
2023-12-28T20:25:34.169Z,8.74
2023-12-28T20:28:04.829Z,8.75
2023-12-28T20:30:35.001Z,8.77
2023-12-28T20:33:08.461Z,8.77
2023-12-28T20:35:38.158Z,8.76
2023-12-28T20:38:07.898Z,8.75
2023-12-28T20:40:38.302Z,8.75
2023-12-28T20:43:08.106Z,8.75
2023-12-28T20:45:37.819Z,8.80
2023-12-28T20:48:10.306Z,8.82
2023-12-28T20:50:39.906Z,8.81
2023-12-28T20:53:09.519Z,8.83
2023-12-28T20:55:39.113Z,8.86
2023-12-28T20:58:08.732Z,8.82
2023-12-28T21:00:38.442Z,8.84
2023-12-28T21:03:10.692Z,8.84
2023-12-28T21:05:40.772Z,8.89
2023-12-28T21:08:10.691Z,8.87
2023-12-28T21:10:40.467Z,8.90
2023-12-28T21:13:17.848Z,8.85
2023-12-28T21:15:47.575Z,8.86
2023-12-28T21:18:27.458Z,8.85
2023-12-28T21:21:09.160Z,8.84
2023-12-28T21:23:41.412Z,8.87
2023-12-28T21:26:11.219Z,8.86
2023-12-28T21:28:41.352Z,8.90
2023-12-28T21:31:12.113Z,8.88
2023-12-28T21:33:44.661Z,8.86
2023-12-28T21:36:14.323Z,8.85
2023-12-28T21:38:43.849Z,8.88
2023-12-28T21:41:13.501Z,8.86
2023-12-28T21:43:43.072Z,8.86
2023-12-28T21:46:15.766Z,8.84
2023-12-28T21:48:48.019Z,8.86
2023-12-28T21:51:18.246Z,8.85
2023-12-28T21:53:47.813Z,8.91
2023-12-28T21:56:17.630Z,8.90
2023-12-28T21:58:47.233Z,8.90
2023-12-28T22:01:16.939Z,8.87
2023-12-28T22:03:49.297Z,8.89
2023-12-28T22:06:18.902Z,8.84
2023-12-28T22:08:48.508Z,8.80
2023-12-28T22:11:18.030Z,8.85
2023-12-28T22:13:47.623Z,8.86
2023-12-28T22:16:17.201Z,8.91
2023-12-28T22:18:49.525Z,8.91
2023-12-28T22:21:22.218Z,8.89
2023-12-28T22:23:52.335Z,8.88
2023-12-28T22:26:21.864Z,8.88
2023-12-28T22:28:51.496Z,8.89
2023-12-28T22:31:21.193Z,8.91
2023-12-28T22:33:53.508Z,8.87
2023-12-28T22:36:23.116Z,8.87
2023-12-28T22:38:52.656Z,8.91
2023-12-28T22:41:23.250Z,8.87
2023-12-28T22:43:52.858Z,8.88
2023-12-28T22:46:22.474Z,8.90
2023-12-28T22:48:55.084Z,8.91
2023-12-28T22:51:24.709Z,8.90
2023-12-28T22:53:54.697Z,8.83
2023-12-28T22:56:24.284Z,8.75
2023-12-28T22:58:53.848Z,8.69
2023-12-28T23:01:24.904Z,8.67
2023-12-28T23:03:57.171Z,8.67
2023-12-28T23:06:28.313Z,8.67
2023-12-28T23:08:58.045Z,8.74
2023-12-28T23:11:27.634Z,8.72
2023-12-28T23:13:59.034Z,8.72
2023-12-28T23:16:28.589Z,8.74
2023-12-28T23:19:00.851Z,8.69
2023-12-28T23:21:30.497Z,8.65
2023-12-28T23:24:00.064Z,8.63
2023-12-28T23:26:29.630Z,8.66
2023-12-28T23:28:59.165Z,8.66
2023-12-28T23:31:29.040Z,8.65
2023-12-28T23:34:01.380Z,8.63
2023-12-28T23:36:31.437Z,8.58
2023-12-28T23:39:01.003Z,8.49
2023-12-28T23:41:30.555Z,8.44
2023-12-28T23:44:00.159Z,8.38
2023-12-28T23:46:29.740Z,8.28
2023-12-28T23:49:02.005Z,8.26
2023-12-28T23:51:31.535Z,8.20
2023-12-28T23:54:01.097Z,8.20
2023-12-28T23:56:30.685Z,8.21
2023-12-28T23:59:00.235Z,8.13
